Powers, Oregon
Current Conditions -  °F | °C
As of 9:35 PM on Thursday 27 Nov 2014 (Local Time) from KOTH Reporting Station
Overcast Overcast  
Wind Chill: 54°   Ceiling: 11000
Heat Index: 54°   Visibility: 10mi
Dew Point: 54°   Wind: 7mph
Humidity: 100%   Direction: 160°SSE
Pressure: 29.86"   Gusts: NA
Location:  42.88°N, 124.07°W
Report Text: KOTH 280535Z 16006KT 10SM FEW090 OVC110 12/12 A2986 RMK AO1
Loading
Personal Weather Stations






























Interactive Weather Map New forecast layout! Learn more

10-Day Weather Forecast

Advertisements
Track Severe Weather on mobile